Odenville, Alabama
Current Conditions -  °F | °C
As of 11:53 AM on Monday 24 Nov 2014 (Local Time) from KBHM Reporting Station
Few Clouds Few Clouds  
Wind Chill: 67°   Ceiling: Unl
Heat Index: 67°   Visibility: 10mi
Dew Point: 48°   Wind: 14mph
Humidity: 51%   Direction: 240°WSW
Pressure: 29.84"   Gusts: NA
Location:  33.68°N, 86.4°W
Report Text: KBHM 241753Z 24012KT 10SM FEW044 FEW250 19/09 A2984 RMK AO2 SLP099 T01940089 10200 20178 50004
Loading
Personal Weather Stations






























Interactive Weather Map New forecast layout! Learn more

10-Day Weather Forecast

Advertisements
Track Severe Weather on mobile